createdAt,value
2022-07-28T00:01:09.322Z,25.31
2022-07-28T00:03:40.091Z,25.29
2022-07-28T00:06:10.938Z,25.27
2022-07-28T00:08:41.631Z,25.23
2022-07-28T00:11:12.330Z,25.16
2022-07-28T00:13:43.163Z,25.13
2022-07-28T00:16:13.894Z,25.13
2022-07-28T00:18:45.587Z,25.08
2022-07-28T00:21:16.280Z,25.03
2022-07-28T00:23:47.030Z,24.97
2022-07-28T00:26:17.714Z,24.95
2022-07-28T00:28:48.506Z,24.95
2022-07-28T00:31:19.224Z,24.92
2022-07-28T00:33:50.005Z,24.91
2022-07-28T00:36:24.584Z,24.91
2022-07-28T00:38:56.719Z,24.91
2022-07-28T00:41:27.435Z,24.90
2022-07-28T00:43:58.078Z,24.88
2022-07-28T00:46:28.997Z,24.86
2022-07-28T00:48:59.831Z,24.84
2022-07-28T00:51:30.580Z,24.83
2022-07-28T00:54:01.269Z,24.78
2022-07-28T00:56:31.924Z,24.74
2022-07-28T00:59:02.845Z,24.69
2022-07-28T01:01:33.659Z,24.70
2022-07-28T01:04:04.625Z,24.71
2022-07-28T01:06:40.125Z,24.71
2022-07-28T01:09:12.799Z,24.66
2022-07-28T01:11:47.157Z,24.65
2022-07-28T01:14:20.061Z,24.62
2022-07-28T01:16:51.785Z,24.58
2022-07-28T01:19:30.167Z,24.57
2022-07-28T01:22:00.861Z,24.56
2022-07-28T01:24:32.749Z,24.51
2022-07-28T01:27:04.754Z,24.45
2022-07-28T01:29:59.947Z,24.44
2022-07-28T01:32:32.117Z,24.48
2022-07-28T01:35:04.878Z,24.51
2022-07-28T01:37:36.713Z,24.49
2022-07-28T01:40:08.877Z,24.43
2022-07-28T01:42:41.047Z,24.41
2022-07-28T01:45:12.640Z,24.39
2022-07-28T01:47:43.841Z,24.40
2022-07-28T01:50:15.387Z,24.36
2022-07-28T01:52:46.175Z,24.31
2022-07-28T01:55:16.822Z,24.30
2022-07-28T01:57:47.508Z,24.28
2022-07-28T02:00:18.783Z,24.25
2022-07-28T02:02:49.884Z,24.21
2022-07-28T02:05:21.672Z,24.20
2022-07-28T02:07:53.004Z,24.14
2022-07-28T02:10:23.741Z,24.15
2022-07-28T02:12:54.426Z,24.12
2022-07-28T02:15:25.293Z,24.10
2022-07-28T02:17:55.919Z,24.10
2022-07-28T02:20:26.473Z,24.12
2022-07-28T02:22:57.187Z,24.15
2022-07-28T02:25:27.939Z,24.15
2022-07-28T02:28:00.235Z,24.11
2022-07-28T02:30:32.270Z,24.03
2022-07-28T02:33:03.935Z,23.97
2022-07-28T02:35:38.219Z,23.96
2022-07-28T02:38:11.769Z,23.94
2022-07-28T02:40:42.589Z,23.96
2022-07-28T02:43:14.962Z,23.93
2022-07-28T02:45:47.513Z,23.89
2022-07-28T02:48:19.228Z,23.86
2022-07-28T02:50:49.886Z,23.82
2022-07-28T02:53:20.619Z,23.76
2022-07-28T02:55:51.630Z,23.73
2022-07-28T02:58:23.140Z,23.68
2022-07-28T03:00:54.734Z,23.67
2022-07-28T03:03:25.419Z,23.67
2022-07-28T03:05:56.153Z,23.64
2022-07-28T03:08:26.965Z,23.63
2022-07-28T03:11:09.304Z,23.62
2022-07-28T03:13:40.069Z,23.60
2022-07-28T03:16:10.813Z,23.58
2022-07-28T03:18:41.481Z,23.60
2022-07-28T03:21:12.760Z,23.60
2022-07-28T03:23:44.237Z,23.59
2022-07-28T03:26:17.241Z,23.56
2022-07-28T03:28:48.072Z,23.52
2022-07-28T03:31:18.825Z,23.50
2022-07-28T03:33:49.652Z,23.50
2022-07-28T03:36:20.647Z,23.52
2022-07-28T03:38:54.127Z,23.55
2022-07-28T03:41:24.924Z,23.56
2022-07-28T03:43:55.826Z,23.56
2022-07-28T03:46:27.954Z,23.54
2022-07-28T03:48:58.748Z,23.52
2022-07-28T03:51:29.765Z,23.53
2022-07-28T03:54:00.490Z,23.54
2022-07-28T03:56:31.292Z,23.57
2022-07-28T03:59:01.989Z,23.58
2022-07-28T04:01:32.747Z,23.62
2022-07-28T04:04:03.441Z,23.66
2022-07-28T04:06:34.213Z,23.70
2022-07-28T04:09:04.997Z,23.71
2022-07-28T04:11:35.715Z,23.72
2022-07-28T04:14:06.345Z,23.74
2022-07-28T04:16:37.581Z,23.78
2022-07-28T04:19:08.461Z,23.78
2022-07-28T04:21:39.279Z,23.79
2022-07-28T04:24:12.209Z,23.85
2022-07-28T04:26:44.020Z,23.89
2022-07-28T04:29:15.042Z,23.94
2022-07-28T04:31:54.707Z,23.95
2022-07-28T04:34:25.640Z,24.00
2022-07-28T04:36:56.751Z,24.07
2022-07-28T04:39:27.360Z,24.10
2022-07-28T04:41:58.017Z,24.13
2022-07-28T04:44:28.701Z,24.16
2022-07-28T04:46:59.396Z,24.16
2022-07-28T04:49:30.111Z,24.13
2022-07-28T04:52:08.376Z,24.12
2022-07-28T04:54:39.227Z,24.15
2022-07-28T04:57:12.908Z,24.14
2022-07-28T04:59:45.934Z,24.15
2022-07-28T05:02:19.140Z,24.20
2022-07-28T05:04:49.849Z,24.25
2022-07-28T05:07:20.824Z,24.31
2022-07-28T05:09:51.504Z,24.40
2022-07-28T05:12:22.194Z,24.47
2022-07-28T05:14:52.797Z,24.53
2022-07-28T05:17:23.460Z,24.57
2022-07-28T05:19:54.182Z,24.61
2022-07-28T05:22:25.033Z,24.64
2022-07-28T05:24:55.724Z,24.67
2022-07-28T05:27:26.371Z,24.69
2022-07-28T05:29:57.008Z,24.73
2022-07-28T05:32:27.710Z,24.81
2022-07-28T05:34:59.589Z,24.89
2022-07-28T05:37:30.457Z,24.94
2022-07-28T05:40:01.149Z,25.00
2022-07-28T05:42:36.055Z,25.08
2022-07-28T05:45:15.585Z,25.16
2022-07-28T05:47:48.409Z,25.26
2022-07-28T05:50:19.455Z,25.37
2022-07-28T05:52:51.508Z,25.45
2022-07-28T05:55:22.420Z,25.46
2022-07-28T05:57:54.314Z,25.46
2022-07-28T06:00:25.132Z,25.47
2022-07-28T06:02:55.837Z,25.47
2022-07-28T06:05:27.218Z,25.50
2022-07-28T06:07:58.003Z,25.52
2022-07-28T06:10:49.068Z,25.60
2022-07-28T06:13:20.199Z,25.69
2022-07-28T06:15:52.767Z,25.78
2022-07-28T06:18:23.419Z,25.85
2022-07-28T06:20:54.179Z,25.83
2022-07-28T06:23:24.892Z,25.87
2022-07-28T06:25:55.597Z,25.95
2022-07-28T06:28:26.305Z,26.02
2022-07-28T06:30:57.050Z,26.13
2022-07-28T06:33:27.761Z,26.19
2022-07-28T06:35:58.504Z,26.17
2022-07-28T06:38:29.334Z,26.17
2022-07-28T06:41:00.435Z,26.14
2022-07-28T06:43:33.187Z,26.11
2022-07-28T06:46:06.197Z,26.07
2022-07-28T06:48:39.589Z,26.11
2022-07-28T06:51:10.397Z,26.15
2022-07-28T06:53:43.547Z,26.20
2022-07-28T06:56:21.619Z,26.24
2022-07-28T06:58:54.115Z,26.26
2022-07-28T07:01:24.761Z,26.23
2022-07-28T07:03:55.547Z,26.25
2022-07-28T07:06:26.293Z,26.27
2022-07-28T07:08:57.104Z,26.31
2022-07-28T07:11:27.778Z,26.34
2022-07-28T07:13:58.669Z,26.38
2022-07-28T07:16:29.447Z,26.46
2022-07-28T07:19:00.261Z,26.51
2022-07-28T07:21:37.816Z,26.56
2022-07-28T07:24:09.403Z,26.58
2022-07-28T07:26:40.166Z,26.64
2022-07-28T07:29:10.997Z,26.70
2022-07-28T07:31:41.791Z,26.75
2022-07-28T07:34:12.783Z,26.79
2022-07-28T07:36:43.900Z,26.95
2022-07-28T07:39:14.596Z,27.11
2022-07-28T07:41:45.317Z,27.23
2022-07-28T07:44:17.147Z,27.30
2022-07-28T07:46:48.239Z,27.43
2022-07-28T07:49:19.282Z,27.54
2022-07-28T07:51:50.170Z,27.60
2022-07-28T07:54:22.093Z,27.62
2022-07-28T07:56:52.784Z,27.58
2022-07-28T07:59:23.533Z,27.62
2022-07-28T08:01:55.487Z,27.66
2022-07-28T08:04:26.315Z,27.61
2022-07-28T08:06:59.512Z,27.57
2022-07-28T08:09:30.959Z,27.54
2022-07-28T08:12:01.753Z,27.49
2022-07-28T08:14:32.470Z,27.44
2022-07-28T08:17:03.230Z,27.42
2022-07-28T08:19:33.896Z,27.48
2022-07-28T08:22:04.620Z,27.53
2022-07-28T08:24:35.509Z,27.51
2022-07-28T08:27:06.590Z,27.47
2022-07-28T08:29:37.155Z,27.43
2022-07-28T08:32:08.388Z,27.52
2022-07-28T08:34:39.081Z,27.72
2022-07-28T08:37:09.733Z,27.92
2022-07-28T08:39:40.432Z,28.10
2022-07-28T08:42:13.752Z,28.31
2022-07-28T08:44:46.432Z,28.37
2022-07-28T08:47:17.115Z,28.28
2022-07-28T08:49:49.158Z,28.18
2022-07-28T08:52:20.452Z,28.12
2022-07-28T08:54:51.343Z,28.04
2022-07-28T08:57:22.572Z,28.01
2022-07-28T08:59:53.208Z,28.01
2022-07-28T09:02:26.346Z,27.98
2022-07-28T09:04:57.860Z,27.94
2022-07-28T09:07:29.285Z,27.92
2022-07-28T09:10:02.814Z,27.90
2022-07-28T09:12:33.889Z,27.85
2022-07-28T09:15:04.809Z,27.81
2022-07-28T09:17:35.850Z,27.75
2022-07-28T09:20:10.865Z,27.70
2022-07-28T09:25:41.407Z,27.69
2022-07-28T09:28:12.479Z,27.67
2022-07-28T09:30:53.469Z,27.71
2022-07-28T09:33:42.870Z,27.78
2022-07-28T09:36:16.886Z,27.85
2022-07-28T09:38:47.580Z,27.94
2022-07-28T09:41:22.042Z,28.03
2022-07-28T09:43:55.157Z,28.15
2022-07-28T09:46:29.465Z,28.34
2022-07-28T09:49:01.500Z,28.67
2022-07-28T09:51:33.599Z,29.06
2022-07-28T09:54:14.429Z,29.46
2022-07-28T09:56:46.079Z,29.88
2022-07-28T09:59:18.262Z,30.26
2022-07-28T10:01:56.559Z,30.65
2022-07-28T10:04:35.057Z,31.03
2022-07-28T10:07:11.561Z,31.38
2022-07-28T10:09:42.340Z,31.69
2022-07-28T10:12:20.119Z,31.83
2022-07-28T10:14:52.031Z,32.01
2022-07-28T10:17:31.348Z,32.18
2022-07-28T10:20:02.498Z,32.22
2022-07-28T10:22:37.253Z,32.25
2022-07-28T10:25:12.718Z,32.36
2022-07-28T10:27:44.138Z,32.56
2022-07-28T10:30:15.635Z,32.78
2022-07-28T10:32:47.161Z,32.89
2022-07-28T10:35:18.410Z,33.01
2022-07-28T10:37:53.677Z,33.15
2022-07-28T10:40:27.413Z,33.23
2022-07-28T10:42:58.115Z,33.10
2022-07-28T10:45:48.017Z,33.11
2022-07-28T10:48:23.631Z,33.06
2022-07-28T10:50:54.897Z,33.18
2022-07-28T10:53:28.221Z,33.49
2022-07-28T10:56:01.186Z,33.77
2022-07-28T10:58:34.774Z,33.77
2022-07-28T11:01:06.566Z,33.57
2022-07-28T11:03:40.490Z,33.53
2022-07-28T11:06:27.932Z,33.68
2022-07-28T11:08:59.012Z,33.83
2022-07-28T11:11:45.171Z,34.05
2022-07-28T11:14:34.056Z,34.25
2022-07-28T11:17:15.518Z,34.58
2022-07-28T11:22:49.310Z,34.87
2022-07-28T11:25:22.538Z,34.86
2022-07-28T11:28:11.987Z,34.55
2022-07-28T11:30:53.593Z,34.29
2022-07-28T11:33:27.613Z,33.95
2022-07-28T11:35:59.379Z,33.73
2022-07-28T11:38:30.104Z,33.53
2022-07-28T11:41:00.899Z,33.30
2022-07-28T11:43:37.608Z,33.14
2022-07-28T11:46:31.849Z,33.04
2022-07-28T11:49:25.084Z,32.99
2022-07-28T11:52:15.432Z,33.01
2022-07-28T11:54:51.858Z,33.14
2022-07-28T11:57:24.510Z,33.33
2022-07-28T12:00:02.413Z,33.45
2022-07-28T12:02:33.500Z,33.40
2022-07-28T12:05:09.909Z,33.28
2022-07-28T12:07:51.129Z,33.15
2022-07-28T12:10:52.270Z,32.96
2022-07-28T12:13:17.006Z,32.74
2022-07-28T12:15:52.623Z,32.67
2022-07-28T12:18:24.866Z,32.62
2022-07-28T12:20:56.185Z,32.48
2022-07-28T12:23:39.049Z,32.43
2022-07-28T12:26:40.785Z,32.54
2022-07-28T12:29:14.226Z,32.70
2022-07-28T12:31:54.378Z,32.80
2022-07-28T12:34:28.935Z,32.91
2022-07-28T12:37:02.495Z,32.96
2022-07-28T12:39:34.643Z,33.05
2022-07-28T12:42:06.693Z,33.14
2022-07-28T12:44:38.566Z,33.34
2022-07-28T12:47:09.780Z,33.32
2022-07-28T12:49:41.160Z,33.38
2022-07-28T12:52:21.589Z,33.43
2022-07-28T12:54:55.700Z,33.64
2022-07-28T12:57:49.417Z,33.95
2022-07-28T13:00:22.583Z,34.27
2022-07-28T13:02:56.058Z,34.46
2022-07-28T13:05:54.417Z,34.47
2022-07-28T13:08:27.658Z,34.41
2022-07-28T13:11:00.469Z,34.47
2022-07-28T13:13:31.589Z,34.60
2022-07-28T13:16:15.693Z,34.62
2022-07-28T13:18:47.038Z,34.59
2022-07-28T13:21:17.587Z,34.35
2022-07-28T13:23:48.324Z,34.03
2022-07-28T13:26:18.972Z,33.85
2022-07-28T13:28:49.637Z,33.79
2022-07-28T13:31:20.407Z,33.96
2022-07-28T13:33:51.157Z,34.11
2022-07-28T13:36:22.338Z,34.04
2022-07-28T13:38:52.985Z,34.03
2022-07-28T13:41:23.634Z,34.00
2022-07-28T13:43:57.288Z,33.95
2022-07-28T13:46:28.080Z,33.85
2022-07-28T13:49:00.468Z,33.82
2022-07-28T13:51:31.326Z,33.74
2022-07-28T13:54:05.686Z,33.62
2022-07-28T13:56:43.128Z,33.52
2022-07-28T13:59:14.088Z,33.70
2022-07-28T14:01:49.724Z,33.92
2022-07-28T14:04:21.641Z,34.02
2022-07-28T14:06:52.973Z,33.98
2022-07-28T14:09:23.631Z,33.76
2022-07-28T14:11:54.380Z,33.46
2022-07-28T14:14:25.777Z,33.21
2022-07-28T14:16:56.612Z,33.09
2022-07-28T14:19:39.566Z,33.01
2022-07-28T14:22:13.596Z,33.01
2022-07-28T14:24:44.909Z,33.02
2022-07-28T14:27:15.610Z,33.04
2022-07-28T14:29:47.203Z,32.98
2022-07-28T14:32:17.832Z,33.04
2022-07-28T14:34:48.600Z,32.94
2022-07-28T14:37:19.511Z,32.85
2022-07-28T14:39:50.204Z,32.78
2022-07-28T14:42:20.868Z,32.69
2022-07-28T14:44:51.523Z,32.79
2022-07-28T14:47:22.421Z,32.97
2022-07-28T14:49:58.324Z,33.07
2022-07-28T14:52:29.587Z,33.05
2022-07-28T14:55:00.271Z,33.05
2022-07-28T14:57:48.205Z,33.06
2022-07-28T15:00:22.102Z,33.14
2022-07-28T15:02:53.235Z,33.18
2022-07-28T15:05:24.205Z,33.13
2022-07-28T15:07:54.887Z,33.05
2022-07-28T15:10:25.553Z,32.98
2022-07-28T15:12:56.901Z,32.80
2022-07-28T15:15:27.722Z,32.65
2022-07-28T15:17:58.594Z,32.60
2022-07-28T15:20:29.387Z,32.54
2022-07-28T15:22:59.992Z,32.38
2022-07-28T15:25:30.842Z,32.32
2022-07-28T15:28:01.994Z,32.20
2022-07-28T15:30:32.695Z,32.08
2022-07-28T15:33:07.119Z,31.93
2022-07-28T15:35:58.422Z,31.86
2022-07-28T15:38:29.136Z,31.75
2022-07-28T15:41:00.408Z,31.70
2022-07-28T15:43:32.923Z,31.65
2022-07-28T15:46:06.245Z,31.55
2022-07-28T15:48:37.018Z,31.45
2022-07-28T15:51:08.053Z,31.39
2022-07-28T15:53:38.730Z,31.37
2022-07-28T15:56:09.464Z,31.37
2022-07-28T15:58:40.893Z,31.35
2022-07-28T16:01:11.543Z,31.29
2022-07-28T16:03:42.413Z,31.21
2022-07-28T16:06:13.189Z,31.07
2022-07-28T16:08:43.849Z,30.96
2022-07-28T16:11:14.832Z,30.90
2022-07-28T16:13:45.746Z,30.83
2022-07-28T16:16:16.796Z,30.74
2022-07-28T16:18:47.539Z,30.69
2022-07-28T16:21:19.020Z,30.62
2022-07-28T16:23:49.665Z,30.57
2022-07-28T16:26:20.428Z,30.57
2022-07-28T16:28:51.277Z,30.53
2022-07-28T16:31:22.044Z,30.49
2022-07-28T16:33:52.754Z,30.46
2022-07-28T16:36:23.477Z,30.46
2022-07-28T16:38:54.113Z,30.42
2022-07-28T16:41:25.364Z,30.35
2022-07-28T16:44:16.441Z,30.28
2022-07-28T16:46:47.527Z,30.22
2022-07-28T16:49:18.352Z,30.15
2022-07-28T16:51:49.142Z,30.12
2022-07-28T16:54:20.538Z,30.07
2022-07-28T16:56:51.595Z,30.01
2022-07-28T16:59:22.671Z,29.95
2022-07-28T17:01:53.552Z,29.91
2022-07-28T17:04:24.407Z,29.85
2022-07-28T17:06:55.522Z,29.78
2022-07-28T17:09:26.271Z,29.76
2022-07-28T17:11:57.003Z,29.75
2022-07-28T17:14:27.815Z,29.71
2022-07-28T17:16:58.659Z,29.64
2022-07-28T17:19:32.805Z,29.58
2022-07-28T17:22:07.088Z,29.49
2022-07-28T17:24:37.787Z,29.40
2022-07-28T17:29:59.470Z,29.17
2022-07-28T17:32:30.277Z,29.01
2022-07-28T17:35:01.181Z,28.90
2022-07-28T17:37:32.393Z,28.84
2022-07-28T17:40:04.605Z,28.81
2022-07-28T17:42:35.707Z,28.74
2022-07-28T17:45:06.895Z,28.69
2022-07-28T17:47:39.967Z,28.61
2022-07-28T17:50:13.222Z,28.46
2022-07-28T17:52:44.517Z,28.35
2022-07-28T17:55:41.243Z,28.27
2022-07-28T17:58:28.192Z,28.19
2022-07-28T18:01:10.598Z,28.11
2022-07-28T18:03:56.817Z,28.04
2022-07-28T18:06:32.542Z,28.00
2022-07-28T18:09:06.458Z,27.93
2022-07-28T18:11:57.585Z,27.84
2022-07-28T18:14:29.989Z,27.75
2022-07-28T18:17:01.113Z,27.63
2022-07-28T18:19:32.085Z,27.62
2022-07-28T18:22:02.837Z,27.61
2022-07-28T18:24:33.623Z,27.57
2022-07-28T18:27:05.450Z,27.54
2022-07-28T18:29:38.488Z,27.50
2022-07-28T18:32:12.321Z,27.43
2022-07-28T18:34:45.550Z,27.34
2022-07-28T18:37:16.460Z,27.32
2022-07-28T18:39:47.323Z,27.37
2022-07-28T18:42:18.222Z,27.36
2022-07-28T18:44:49.239Z,27.35
2022-07-28T18:47:20.959Z,27.26
2022-07-28T18:49:52.724Z,27.18
2022-07-28T18:52:24.438Z,27.12
2022-07-28T18:54:55.862Z,27.07
2022-07-28T18:57:26.759Z,27.03
2022-07-28T18:59:57.402Z,26.98
2022-07-28T19:02:28.178Z,26.87
2022-07-28T19:04:59.260Z,26.74
2022-07-28T19:07:29.969Z,26.61
2022-07-28T19:10:01.109Z,26.54
2022-07-28T19:12:31.794Z,26.52
2022-07-28T19:15:02.437Z,26.52
2022-07-28T19:17:34.119Z,26.55
2022-07-28T19:20:08.078Z,26.59
2022-07-28T19:22:38.760Z,26.62
2022-07-28T19:25:10.312Z,26.61
2022-07-28T19:27:40.980Z,26.63
2022-07-28T19:30:12.415Z,26.56
2022-07-28T19:32:43.108Z,26.52
2022-07-28T19:35:14.004Z,26.50
2022-07-28T19:37:44.932Z,26.44
2022-07-28T19:40:15.764Z,26.39
2022-07-28T19:42:48.567Z,26.30
2022-07-28T19:45:20.242Z,26.20
2022-07-28T19:47:50.984Z,26.13
2022-07-28T19:50:21.885Z,26.10
2022-07-28T19:52:52.613Z,26.02
2022-07-28T19:55:24.220Z,25.98
2022-07-28T19:57:55.958Z,25.95
2022-07-28T20:00:26.771Z,25.83
2022-07-28T20:02:57.498Z,25.71
2022-07-28T20:05:28.597Z,25.61
2022-07-28T20:07:59.323Z,25.58
2022-07-28T20:10:30.108Z,25.52
2022-07-28T20:13:00.814Z,25.53
2022-07-28T20:15:31.661Z,25.58
2022-07-28T20:18:02.838Z,25.57
2022-07-28T20:20:33.573Z,25.48
2022-07-28T20:23:04.394Z,25.45
2022-07-28T20:25:35.127Z,25.40
2022-07-28T20:28:06.233Z,25.40
2022-07-28T20:30:36.882Z,25.41
2022-07-28T20:33:08.406Z,25.35
2022-07-28T20:35:39.311Z,25.29
2022-07-28T20:38:10.007Z,25.27
2022-07-28T20:40:40.625Z,25.26
2022-07-28T20:43:11.536Z,25.21
2022-07-28T20:45:42.381Z,25.19
2022-07-28T20:48:14.448Z,25.16
2022-07-28T20:50:45.506Z,25.14
2022-07-28T20:53:16.274Z,25.13
2022-07-28T20:55:46.994Z,25.13
2022-07-28T20:58:17.685Z,25.12
2022-07-28T21:00:49.316Z,25.13
2022-07-28T21:03:21.574Z,25.16
2022-07-28T21:05:52.335Z,25.17
2022-07-28T21:08:23.033Z,25.17
2022-07-28T21:10:54.204Z,25.16
2022-07-28T21:13:24.942Z,25.19
2022-07-28T21:15:55.663Z,25.19
2022-07-28T21:18:26.407Z,25.18
2022-07-28T21:20:57.243Z,25.22
2022-07-28T21:23:28.025Z,25.20
2022-07-28T21:25:58.861Z,25.17
2022-07-28T21:28:47.212Z,25.17
2022-07-28T21:31:18.010Z,25.20
2022-07-28T21:33:48.903Z,25.18
2022-07-28T21:36:19.675Z,25.16
2022-07-28T21:38:50.398Z,25.14
2022-07-28T21:41:25.421Z,25.08
2022-07-28T21:44:00.806Z,25.03
2022-07-28T21:46:34.555Z,25.03
2022-07-28T21:49:05.870Z,25.04
2022-07-28T21:51:36.663Z,25.02
2022-07-28T21:54:07.406Z,25.01
2022-07-28T21:56:38.097Z,25.02
2022-07-28T21:59:08.755Z,25.05
2022-07-28T22:01:39.542Z,25.06
2022-07-28T22:04:10.218Z,25.04
2022-07-28T22:06:40.849Z,25.06
2022-07-28T22:09:16.791Z,25.06
2022-07-28T22:11:47.522Z,25.04
2022-07-28T22:14:18.661Z,25.02
2022-07-28T22:16:50.809Z,25.01
2022-07-28T22:19:21.610Z,25.01
2022-07-28T22:21:54.126Z,25.00
2022-07-28T22:24:25.149Z,25.00
2022-07-28T22:26:55.849Z,24.99
2022-07-28T22:29:26.486Z,25.01
2022-07-28T22:31:59.385Z,25.05
2022-07-28T22:34:30.734Z,25.06
2022-07-28T22:37:11.184Z,25.06
2022-07-28T22:39:43.717Z,25.03
2022-07-28T22:42:14.436Z,25.05
2022-07-28T22:44:45.184Z,25.07
2022-07-28T22:47:15.863Z,25.05
2022-07-28T22:49:46.512Z,25.01
2022-07-28T22:52:17.262Z,24.99
2022-07-28T22:54:47.921Z,24.98
2022-07-28T22:57:18.650Z,24.98
2022-07-28T22:59:51.166Z,24.98
2022-07-28T23:02:22.200Z,24.97
2022-07-28T23:04:52.842Z,24.95
2022-07-28T23:07:51.106Z,24.92
2022-07-28T23:10:14.223Z,24.93
2022-07-28T23:12:44.864Z,24.94
2022-07-28T23:15:15.539Z,25.01
2022-07-28T23:17:46.263Z,25.06
2022-07-28T23:20:16.970Z,25.12
2022-07-28T23:22:47.646Z,25.16
2022-07-28T23:25:18.411Z,25.14
2022-07-28T23:27:49.175Z,25.11
2022-07-28T23:30:19.977Z,25.12
2022-07-28T23:32:52.739Z,25.15
2022-07-28T23:35:23.421Z,25.14
2022-07-28T23:37:54.242Z,25.14
2022-07-28T23:40:25.037Z,25.13
2022-07-28T23:42:55.734Z,25.09
2022-07-28T23:45:26.532Z,25.05
2022-07-28T23:47:59.031Z,25.02
2022-07-28T23:50:29.883Z,24.99
2022-07-28T23:53:00.657Z,24.94
2022-07-28T23:55:31.297Z,24.93
2022-07-28T23:58:01.995Z,24.95
